createdAt,value
2019-05-03T00:02:28.458Z,13.00
2019-05-03T00:05:22.549Z,12.90
2019-05-03T00:07:56.520Z,12.90
2019-05-03T00:10:27.761Z,12.90
2019-05-03T00:12:59.205Z,12.90
2019-05-03T00:15:52.663Z,12.90
2019-05-03T00:18:23.439Z,13.00
2019-05-03T00:20:54.656Z,13.00
2019-05-03T00:23:26.003Z,13.00
2019-05-03T00:25:57.425Z,13.00
2019-05-03T00:28:28.058Z,13.00
2019-05-03T00:30:59.398Z,13.20
2019-05-03T00:33:31.792Z,12.90
2019-05-03T00:36:22.158Z,12.80
2019-05-03T00:38:55.364Z,12.80
2019-05-03T00:41:29.508Z,12.80
2019-05-03T00:44:04.664Z,12.70
2019-05-03T00:46:36.241Z,12.70
2019-05-03T00:49:07.255Z,12.60
2019-05-03T00:51:38.511Z,12.70
2019-05-03T00:54:09.718Z,12.70
2019-05-03T00:56:44.130Z,12.70
2019-05-03T00:59:14.063Z,12.70
2019-05-03T01:01:44.975Z,12.80
2019-05-03T01:04:16.101Z,12.80
2019-05-03T01:06:46.670Z,12.90
2019-05-03T01:09:22.422Z,12.90
2019-05-03T01:11:53.244Z,12.80
2019-05-03T01:14:24.149Z,12.80
2019-05-03T01:16:54.981Z,12.80
2019-05-03T01:19:26.011Z,12.90
2019-05-03T01:21:56.975Z,12.80
2019-05-03T01:24:28.568Z,12.80
2019-05-03T01:26:59.495Z,12.70
2019-05-03T01:29:32.292Z,12.70
2019-05-03T01:32:04.633Z,12.60
2019-05-03T01:34:35.796Z,12.50
2019-05-03T01:37:06.539Z,12.60
2019-05-03T01:39:37.471Z,12.60
2019-05-03T01:42:08.023Z,12.60
2019-05-03T01:44:39.001Z,12.60
2019-05-03T01:47:14.064Z,12.50
2019-05-03T01:50:03.884Z,12.50
2019-05-03T01:52:37.681Z,12.40
2019-05-03T01:55:13.156Z,12.20
2019-05-03T01:57:43.886Z,12.10
2019-05-03T02:00:19.338Z,12.10
2019-05-03T02:02:57.816Z,12.00
2019-05-03T02:05:46.316Z,12.20
2019-05-03T02:08:17.691Z,12.20
2019-05-03T02:10:48.735Z,12.20
2019-05-03T02:13:19.956Z,12.20
2019-05-03T02:15:52.773Z,12.20
2019-05-03T02:18:23.438Z,12.30
2019-05-03T02:20:56.663Z,12.50
2019-05-03T02:23:27.375Z,12.60
2019-05-03T02:25:59.272Z,12.70
2019-05-03T02:28:32.548Z,12.70
2019-05-03T02:31:03.754Z,12.70
2019-05-03T02:33:34.765Z,12.60
2019-05-03T02:36:05.640Z,12.50
2019-05-03T02:38:36.544Z,12.60
2019-05-03T02:41:08.399Z,12.70
2019-05-03T02:43:45.577Z,12.70
2019-05-03T02:46:36.074Z,12.70
2019-05-03T02:49:26.131Z,12.80
2019-05-03T02:51:56.776Z,12.90
2019-05-03T02:54:28.094Z,12.80
2019-05-03T02:56:59.047Z,12.70
2019-05-03T02:59:30.266Z,12.70
2019-05-03T03:02:01.393Z,12.70
2019-05-03T03:04:35.134Z,12.60
2019-05-03T03:07:06.325Z,12.50
2019-05-03T03:09:37.632Z,12.40
2019-05-03T03:12:09.172Z,12.30
2019-05-03T03:14:41.572Z,12.40
2019-05-03T03:17:14.941Z,12.40
2019-05-03T03:19:49.093Z,12.30
2019-05-03T03:22:25.819Z,12.30
2019-05-03T03:24:59.104Z,12.20
2019-05-03T03:27:36.083Z,12.20
2019-05-03T03:30:28.976Z,12.20
2019-05-03T03:33:02.109Z,12.20
2019-05-03T03:35:38.342Z,12.30
2019-05-03T03:38:08.927Z,12.40
2019-05-03T03:40:45.327Z,12.50
2019-05-03T03:43:20.447Z,12.50
2019-05-03T03:45:52.234Z,12.40
2019-05-03T03:48:28.871Z,12.40
2019-05-03T03:51:01.452Z,12.50
2019-05-03T03:53:37.735Z,12.50
2019-05-03T03:56:10.860Z,12.50
2019-05-03T03:58:46.173Z,12.40
2019-05-03T04:01:16.390Z,12.30
2019-05-03T04:03:47.683Z,12.40
2019-05-03T04:06:18.571Z,12.40
2019-05-03T04:08:49.861Z,12.40
2019-05-03T04:11:22.980Z,12.40
2019-05-03T04:13:55.925Z,12.40
2019-05-03T04:16:58.125Z,12.30
2019-05-03T04:19:32.370Z,12.20
2019-05-03T04:22:05.918Z,12.20
2019-05-03T04:24:37.708Z,12.20
2019-05-03T04:27:18.692Z,12.20
2019-05-03T04:29:41.273Z,12.20
2019-05-03T04:32:15.404Z,12.20
2019-05-03T04:34:46.851Z,12.20
2019-05-03T04:37:17.872Z,12.20
2019-05-03T04:39:49.111Z,12.20
2019-05-03T04:42:19.901Z,12.20
2019-05-03T04:44:52.230Z,12.20
2019-05-03T04:47:25.610Z,12.30
2019-05-03T04:49:55.604Z,12.30
2019-05-03T04:52:27.203Z,12.30
2019-05-03T04:55:02.790Z,12.30
2019-05-03T04:57:40.681Z,12.30
2019-05-03T05:00:11.223Z,12.30
2019-05-03T05:02:45.589Z,12.50
2019-05-03T05:05:15.658Z,12.50
2019-05-03T05:07:46.503Z,12.50
2019-05-03T05:10:17.677Z,12.40
2019-05-03T05:12:55.170Z,12.60
2019-05-03T05:15:26.458Z,12.60
2019-05-03T05:18:05.739Z,12.60
2019-05-03T05:20:55.527Z,12.60
2019-05-03T05:23:27.583Z,12.60
2019-05-03T05:26:09.421Z,12.60
2019-05-03T05:28:51.073Z,12.60
2019-05-03T05:31:23.079Z,12.60
2019-05-03T05:33:54.586Z,12.60
2019-05-03T05:36:25.649Z,12.60
2019-05-03T05:38:56.250Z,12.60
2019-05-03T05:41:27.394Z,12.60
2019-05-03T05:43:58.513Z,12.60
2019-05-03T05:46:35.143Z,12.60
2019-05-03T05:49:08.583Z,12.60
2019-05-03T05:51:39.562Z,12.60
2019-05-03T05:54:10.719Z,12.60
2019-05-03T05:57:08.460Z,12.50
2019-05-03T06:00:06.012Z,12.60
2019-05-03T06:02:36.934Z,12.60
2019-05-03T06:05:07.690Z,12.60
2019-05-03T06:07:59.912Z,12.60
2019-05-03T06:10:45.368Z,12.70
2019-05-03T06:13:35.123Z,12.70
2019-05-03T06:16:18.532Z,12.70
2019-05-03T06:19:17.567Z,12.60
2019-05-03T06:21:56.108Z,12.50
2019-05-03T06:24:32.265Z,12.50
2019-05-03T06:27:20.447Z,12.40
2019-05-03T06:29:54.514Z,12.30
2019-05-03T06:32:30.683Z,12.20
2019-05-03T06:35:01.445Z,12.20
2019-05-03T06:37:37.086Z,12.20
2019-05-03T06:40:08.118Z,12.30
2019-05-03T06:42:51.584Z,12.30
2019-05-03T06:45:12.498Z,12.30
2019-05-03T06:47:48.412Z,12.40
2019-05-03T06:50:27.226Z,12.40
2019-05-03T06:52:54.784Z,12.40
2019-05-03T06:55:26.304Z,12.40
2019-05-03T06:57:57.740Z,12.40
2019-05-03T07:00:59.701Z,12.50
2019-05-03T07:03:38.684Z,12.50
2019-05-03T07:06:33.270Z,12.60
2019-05-03T07:09:05.707Z,12.60
2019-05-03T07:11:36.843Z,12.70
2019-05-03T07:14:07.861Z,12.80
2019-05-03T07:16:38.786Z,12.90
2019-05-03T07:19:09.875Z,12.90
2019-05-03T07:21:40.837Z,13.00
2019-05-03T07:24:11.993Z,13.10
2019-05-03T07:26:44.678Z,13.10
2019-05-03T07:29:15.916Z,13.10
2019-05-03T07:31:46.501Z,13.00
2019-05-03T07:34:19.304Z,13.00
2019-05-03T07:36:52.962Z,13.10
2019-05-03T07:39:25.694Z,13.10
2019-05-03T07:41:57.935Z,13.20
2019-05-03T07:44:30.066Z,13.20
2019-05-03T07:47:04.791Z,13.20
2019-05-03T07:49:36.600Z,13.20
2019-05-03T07:52:08.383Z,13.30
2019-05-03T07:54:39.783Z,13.30
2019-05-03T07:57:35.692Z,13.40
2019-05-03T08:00:08.545Z,13.60
2019-05-03T08:02:40.183Z,13.70
2019-05-03T08:05:11.204Z,13.80
2019-05-03T08:07:47.434Z,13.90
2019-05-03T08:10:18.515Z,13.80
2019-05-03T08:12:49.672Z,13.70
2019-05-03T08:15:20.730Z,13.80
2019-05-03T08:17:52.435Z,14.00
2019-05-03T08:20:24.840Z,14.10
2019-05-03T08:22:56.182Z,14.30
2019-05-03T08:25:27.254Z,14.40
2019-05-03T08:27:57.985Z,14.40
2019-05-03T08:30:37.344Z,14.20
2019-05-03T08:33:16.493Z,14.20
2019-05-03T08:35:48.938Z,14.10
2019-05-03T08:38:22.203Z,14.00
2019-05-03T08:40:57.075Z,13.50
2019-05-03T08:43:28.522Z,13.80
2019-05-03T08:46:00.025Z,13.70
2019-05-03T08:48:31.601Z,13.60
2019-05-03T08:51:04.598Z,13.40
2019-05-03T08:53:36.099Z,13.20
2019-05-03T08:56:07.584Z,13.00
2019-05-03T08:58:39.138Z,12.90
2019-05-03T09:01:10.632Z,13.00
2019-05-03T09:03:41.741Z,13.20
2019-05-03T09:06:15.471Z,13.60
2019-05-03T09:08:46.301Z,13.80
2019-05-03T09:11:30.837Z,13.80
2019-05-03T09:14:02.214Z,14.00
2019-05-03T09:16:35.440Z,14.00
2019-05-03T09:19:06.144Z,14.10
2019-05-03T09:21:38.188Z,14.20
2019-05-03T09:24:09.112Z,14.30
2019-05-03T09:26:40.477Z,14.20
2019-05-03T09:29:11.393Z,14.20
2019-05-03T09:31:44.567Z,14.20
2019-05-03T09:34:15.140Z,14.20
2019-05-03T09:36:50.332Z,14.10
2019-05-03T09:39:24.347Z,14.10
2019-05-03T09:41:55.448Z,14.00
2019-05-03T09:44:26.652Z,14.00
2019-05-03T09:47:07.602Z,14.00
2019-05-03T09:49:46.330Z,14.10
2019-05-03T09:52:19.853Z,14.20
2019-05-03T09:54:56.337Z,14.80
2019-05-03T09:57:28.509Z,15.10
2019-05-03T10:00:00.263Z,15.50
2019-05-03T10:02:31.265Z,15.70
2019-05-03T10:05:02.399Z,15.80
2019-05-03T10:07:35.078Z,15.80
2019-05-03T10:10:11.045Z,15.90
2019-05-03T10:12:42.867Z,15.90
2019-05-03T10:15:21.524Z,15.90
2019-05-03T10:17:59.920Z,16.00
2019-05-03T10:20:44.509Z,16.20
2019-05-03T10:23:45.201Z,16.30
2019-05-03T10:26:17.381Z,16.60
2019-05-03T10:28:49.853Z,16.80
2019-05-03T10:31:26.961Z,17.10
2019-05-03T10:34:01.764Z,17.40
2019-05-03T10:36:33.010Z,17.30
2019-05-03T10:39:06.996Z,17.30
2019-05-03T10:41:38.527Z,17.10
2019-05-03T10:44:09.924Z,17.10
2019-05-03T10:46:41.431Z,17.00
2019-05-03T10:49:15.134Z,16.90
2019-05-03T10:51:50.786Z,16.90
2019-05-03T10:54:29.372Z,17.20
2019-05-03T10:57:20.499Z,17.50
2019-05-03T10:59:53.173Z,17.60
2019-05-03T11:02:47.382Z,17.90
2019-05-03T11:05:19.466Z,18.10
2019-05-03T11:07:50.602Z,18.20
2019-05-03T11:10:21.709Z,18.10
2019-05-03T11:12:54.745Z,18.00
2019-05-03T11:15:26.058Z,17.70
2019-05-03T11:17:58.349Z,17.80
2019-05-03T11:20:35.266Z,17.80
2019-05-03T11:23:07.401Z,17.40
2019-05-03T11:25:38.783Z,16.80
2019-05-03T11:28:24.938Z,16.40
2019-05-03T11:31:02.184Z,16.00
2019-05-03T11:33:37.275Z,15.90
2019-05-03T11:36:27.963Z,15.80
2019-05-03T11:38:59.315Z,15.70
2019-05-03T11:41:32.842Z,15.70
2019-05-03T11:44:21.321Z,15.60
2019-05-03T11:46:54.967Z,15.50
2019-05-03T11:49:26.388Z,15.30
2019-05-03T11:51:57.402Z,14.70
2019-05-03T11:54:28.623Z,14.20
2019-05-03T11:57:01.720Z,13.70
2019-05-03T11:59:34.414Z,13.40
2019-05-03T12:02:24.675Z,13.20
2019-05-03T12:04:55.480Z,13.10
2019-05-03T12:07:39.650Z,13.20
2019-05-03T12:10:16.140Z,13.30
2019-05-03T12:12:40.808Z,13.40
2019-05-03T12:15:11.934Z,13.40
2019-05-03T12:17:54.458Z,13.40
2019-05-03T12:20:21.036Z,13.50
2019-05-03T12:22:52.910Z,13.30
2019-05-03T12:25:26.086Z,13.50
2019-05-03T12:27:56.370Z,13.60
2019-05-03T12:30:27.852Z,13.70
2019-05-03T12:32:58.613Z,13.90
2019-05-03T12:35:29.540Z,14.30
2019-05-03T12:38:01.036Z,15.20
2019-05-03T12:40:31.905Z,15.70
2019-05-03T12:43:05.731Z,15.90
2019-05-03T12:45:36.288Z,16.10
2019-05-03T12:48:07.221Z,16.80
2019-05-03T12:50:38.568Z,18.40
2019-05-03T12:53:17.476Z,19.80
2019-05-03T12:55:58.971Z,20.80
2019-05-03T12:59:02.248Z,21.90
2019-05-03T13:02:04.875Z,22.50
2019-05-03T13:04:37.641Z,23.70
2019-05-03T13:10:45.533Z,24.10
2019-05-03T13:13:16.852Z,22.40
2019-05-03T13:15:48.067Z,21.20
2019-05-03T13:18:19.102Z,20.10
2019-05-03T13:20:50.130Z,19.10
2019-05-03T13:23:22.361Z,18.50
2019-05-03T13:25:54.174Z,18.30
2019-05-03T13:28:25.523Z,18.30
2019-05-03T13:30:56.407Z,18.00
2019-05-03T13:33:27.299Z,17.70
2019-05-03T13:35:58.194Z,17.60
2019-05-03T13:38:29.716Z,17.60
2019-05-03T13:41:01.090Z,18.30
2019-05-03T13:43:32.090Z,19.90
2019-05-03T13:46:05.601Z,21.70
2019-05-03T13:48:44.895Z,22.70
2019-05-03T13:51:09.424Z,22.50
2019-05-03T13:53:40.667Z,21.20
2019-05-03T13:56:18.922Z,20.30
2019-05-03T13:58:56.140Z,19.80
2019-05-03T14:01:29.530Z,19.10
2019-05-03T14:04:00.455Z,18.40
2019-05-03T14:06:33.669Z,18.00
2019-05-03T14:09:05.182Z,17.80
2019-05-03T14:11:36.334Z,18.20
2019-05-03T14:14:07.244Z,18.30
2019-05-03T14:16:38.251Z,18.10
2019-05-03T14:19:14.764Z,17.80
2019-05-03T14:21:50.363Z,17.40
2019-05-03T14:24:21.219Z,17.40
2019-05-03T14:26:52.124Z,17.10
2019-05-03T14:29:25.262Z,16.90
2019-05-03T14:31:57.657Z,16.80
2019-05-03T14:34:28.894Z,16.70
2019-05-03T14:36:59.943Z,16.60
2019-05-03T14:39:33.422Z,16.70
2019-05-03T14:42:12.732Z,16.70
2019-05-03T14:45:00.305Z,16.70
2019-05-03T14:47:33.607Z,16.50
2019-05-03T14:50:05.515Z,16.40
2019-05-03T14:52:36.600Z,16.40
2019-05-03T14:55:14.678Z,16.60
2019-05-03T14:57:55.280Z,16.90
2019-05-03T15:00:45.184Z,17.10
2019-05-03T15:03:19.481Z,17.00
2019-05-03T15:05:50.419Z,17.60
2019-05-03T15:08:21.459Z,17.70
2019-05-03T15:10:54.353Z,17.60
2019-05-03T15:13:25.615Z,17.60
2019-05-03T20:34:50.643Z,14.10
2019-05-03T20:37:21.589Z,14.00
2019-05-03T20:39:54.449Z,14.10
2019-05-03T20:42:44.769Z,14.10
2019-05-03T20:45:21.096Z,14.00
2019-05-03T20:47:55.358Z,14.00
2019-05-03T20:50:27.175Z,13.80
2019-05-03T20:53:01.540Z,13.70
2019-05-03T20:55:34.595Z,13.70
2019-05-03T20:58:08.270Z,13.60
2019-05-03T21:00:38.511Z,13.60
2019-05-03T21:03:09.548Z,13.70
2019-05-03T21:05:41.281Z,13.70
2019-05-03T21:08:12.198Z,13.70
2019-05-03T21:10:45.833Z,13.80
2019-05-03T21:13:17.012Z,13.80
2019-05-03T21:16:06.770Z,13.80
2019-05-03T21:18:52.686Z,13.70
2019-05-03T21:21:35.131Z,13.90
2019-05-03T21:24:11.142Z,13.90
2019-05-03T21:26:45.154Z,13.80
2019-05-03T21:29:16.406Z,13.90
2019-05-03T21:31:48.101Z,13.80
2019-05-03T21:34:19.128Z,13.90
2019-05-03T21:36:51.514Z,13.90
2019-05-03T21:39:24.504Z,13.80
2019-05-03T21:41:55.531Z,13.80
2019-05-03T21:44:34.135Z,13.80
2019-05-03T21:47:15.186Z,13.80
2019-05-03T21:49:46.568Z,13.70
2019-05-03T21:52:18.225Z,13.70
2019-05-03T21:54:51.455Z,13.70
2019-05-03T21:57:25.156Z,13.70
2019-05-03T21:59:56.029Z,13.70
2019-05-03T22:02:28.644Z,13.70
2019-05-03T22:04:59.923Z,13.60
2019-05-03T22:07:30.867Z,13.60
2019-05-03T22:10:02.066Z,13.60
2019-05-03T22:12:33.439Z,13.50
2019-05-03T22:15:22.484Z,13.60
2019-05-03T22:18:18.415Z,13.60
2019-05-03T22:21:00.408Z,13.60
2019-05-03T22:23:56.396Z,13.60
2019-05-03T22:26:45.393Z,13.60
2019-05-03T22:29:17.182Z,13.50
2019-05-03T22:31:48.752Z,13.50
2019-05-03T22:34:19.794Z,13.40
2019-05-03T22:36:50.489Z,13.50
2019-05-03T22:39:21.487Z,13.40
2019-05-03T22:41:52.409Z,13.40
2019-05-03T22:44:25.100Z,13.40
2019-05-03T22:46:55.693Z,13.40
2019-05-03T22:49:27.302Z,13.40
2019-05-03T22:51:58.127Z,13.50
2019-05-03T22:54:28.851Z,13.40
2019-05-03T22:57:00.515Z,13.50
2019-05-03T22:59:31.858Z,13.50
2019-05-03T23:02:02.437Z,13.50
2019-05-03T23:04:35.463Z,13.40
2019-05-03T23:07:06.879Z,13.40
2019-05-03T23:09:37.792Z,13.30
2019-05-03T23:12:09.112Z,13.40
2019-05-03T23:14:42.103Z,13.30
2019-05-03T23:17:15.003Z,13.20
2019-05-03T23:19:48.880Z,13.20
2019-05-03T23:22:28.952Z,13.10
2019-05-03T23:25:00.010Z,13.10
2019-05-03T23:27:31.062Z,13.10
2019-05-03T23:30:05.898Z,13.00
2019-05-03T23:32:36.780Z,13.00
2019-05-03T23:35:08.212Z,13.00
2019-05-03T23:37:39.343Z,13.00
2019-05-03T23:40:10.464Z,13.10
2019-05-03T23:42:41.777Z,13.10
2019-05-03T23:45:14.796Z,13.10
2019-05-03T23:47:47.582Z,13.20
2019-05-03T23:50:19.976Z,13.20
2019-05-03T23:52:51.575Z,13.10
2019-05-03T23:55:36.442Z,13.00
2019-05-03T23:58:08.947Z,13.00
